sensor_id;sensor_type;location;lat;lon;timestamp;P1;durP1;ratioP1;P2;durP2;ratioP2
31282;SDS011;17915;52.540;13.604;2023-04-24T00:00:04;6.23;;;5.67;;
31282;SDS011;17915;52.540;13.604;2023-04-24T00:02:38;6.15;;;5.68;;
31282;SDS011;17915;52.540;13.604;2023-04-24T00:05:07;7.03;;;5.18;;
31282;SDS011;17915;52.540;13.604;2023-04-24T00:07:33;8.68;;;6.65;;
31282;SDS011;17915;52.540;13.604;2023-04-24T00:09:58;5.32;;;5.03;;
31282;SDS011;17915;52.540;13.604;2023-04-24T00:12:24;7.63;;;6.80;;
31282;SDS011;17915;52.540;13.604;2023-04-24T00:14:50;6.75;;;6.15;;
31282;SDS011;17915;52.540;13.604;2023-04-24T00:17:15;6.87;;;6.20;;
31282;SDS011;17915;52.540;13.604;2023-04-24T00:19:44;6.93;;;6.32;;
31282;SDS011;17915;52.540;13.604;2023-04-24T00:22:10;5.90;;;5.37;;
31282;SDS011;17915;52.540;13.604;2023-04-24T00:24:35;6.13;;;5.63;;
31282;SDS011;17915;52.540;13.604;2023-04-24T00:27:01;5.87;;;5.40;;
31282;SDS011;17915;52.540;13.604;2023-04-24T00:29:27;10.45;;;6.43;;
31282;SDS011;17915;52.540;13.604;2023-04-24T00:31:53;5.13;;;4.70;;
31282;SDS011;17915;52.540;13.604;2023-04-24T00:34:19;6.30;;;5.70;;
31282;SDS011;17915;52.540;13.604;2023-04-24T00:36:44;8.30;;;6.47;;
31282;SDS011;17915;52.540;13.604;2023-04-24T00:39:10;8.17;;;5.93;;
31282;SDS011;17915;52.540;13.604;2023-04-24T00:41:35;5.17;;;4.87;;
31282;SDS011;17915;52.540;13.604;2023-04-24T00:44:00;6.97;;;6.37;;
31282;SDS011;17915;52.540;13.604;2023-04-24T00:46:26;7.43;;;6.37;;
31282;SDS011;17915;52.540;13.604;2023-04-24T00:48:52;6.93;;;5.67;;
31282;SDS011;17915;52.540;13.604;2023-04-24T00:51:17;6.30;;;5.80;;
31282;SDS011;17915;52.540;13.604;2023-04-24T00:53:43;6.50;;;6.00;;
31282;SDS011;17915;52.540;13.604;2023-04-24T00:56:08;7.30;;;5.83;;
31282;SDS011;17915;52.540;13.604;2023-04-24T00:58:34;5.97;;;5.47;;
31282;SDS011;17915;52.540;13.604;2023-04-24T01:00:59;6.37;;;5.77;;
31282;SDS011;17915;52.540;13.604;2023-04-24T01:03:26;9.93;;;6.43;;
31282;SDS011;17915;52.540;13.604;2023-04-24T01:05:54;7.10;;;6.50;;
31282;SDS011;17915;52.540;13.604;2023-04-24T01:08:20;6.73;;;6.13;;
31282;SDS011;17915;52.540;13.604;2023-04-24T01:10:46;6.95;;;6.45;;
31282;SDS011;17915;52.540;13.604;2023-04-24T01:13:12;7.03;;;6.43;;
31282;SDS011;17915;52.540;13.604;2023-04-24T01:15:38;5.53;;;5.13;;
31282;SDS011;17915;52.540;13.604;2023-04-24T01:18:03;7.97;;;6.07;;
31282;SDS011;17915;52.540;13.604;2023-04-24T01:20:29;8.40;;;6.40;;
31282;SDS011;17915;52.540;13.604;2023-04-24T01:22:55;6.75;;;6.10;;
31282;SDS011;17915;52.540;13.604;2023-04-24T01:25:21;12.82;;;6.05;;
31282;SDS011;17915;52.540;13.604;2023-04-24T01:27:47;8.20;;;5.90;;
31282;SDS011;17915;52.540;13.604;2023-04-24T01:30:12;6.67;;;6.07;;
31282;SDS011;17915;52.540;13.604;2023-04-24T01:32:38;8.85;;;5.93;;
31282;SDS011;17915;52.540;13.604;2023-04-24T01:35:04;7.63;;;5.93;;
31282;SDS011;17915;52.540;13.604;2023-04-24T01:37:30;6.55;;;5.95;;
31282;SDS011;17915;52.540;13.604;2023-04-24T01:39:57;10.25;;;6.00;;
31282;SDS011;17915;52.540;13.604;2023-04-24T01:42:22;7.10;;;6.40;;
31282;SDS011;17915;52.540;13.604;2023-04-24T01:44:48;6.70;;;6.20;;
31282;SDS011;17915;52.540;13.604;2023-04-24T01:47:13;6.20;;;5.60;;
31282;SDS011;17915;52.540;13.604;2023-04-24T01:49:38;6.87;;;6.17;;
31282;SDS011;17915;52.540;13.604;2023-04-24T01:52:04;14.30;;;6.03;;
31282;SDS011;17915;52.540;13.604;2023-04-24T01:54:30;7.90;;;6.50;;
31282;SDS011;17915;52.540;13.604;2023-04-24T01:56:55;6.07;;;5.53;;
31282;SDS011;17915;52.540;13.604;2023-04-24T01:59:20;6.37;;;5.77;;
31282;SDS011;17915;52.540;13.604;2023-04-24T02:01:46;6.68;;;6.10;;
31282;SDS011;17915;52.540;13.604;2023-04-24T02:04:12;7.13;;;6.50;;
31282;SDS011;17915;52.540;13.604;2023-04-24T02:06:38;7.22;;;6.45;;
31282;SDS011;17915;52.540;13.604;2023-04-24T02:09:04;7.03;;;5.97;;
31282;SDS011;17915;52.540;13.604;2023-04-24T02:11:29;10.77;;;5.70;;
31282;SDS011;17915;52.540;13.604;2023-04-24T02:13:55;6.23;;;5.63;;
31282;SDS011;17915;52.540;13.604;2023-04-24T02:16:20;7.00;;;6.40;;
31282;SDS011;17915;52.540;13.604;2023-04-24T02:18:46;8.03;;;5.73;;
31282;SDS011;17915;52.540;13.604;2023-04-24T02:21:11;7.20;;;6.30;;
31282;SDS011;17915;52.540;13.604;2023-04-24T02:23:37;6.83;;;6.20;;
31282;SDS011;17915;52.540;13.604;2023-04-24T02:26:02;6.43;;;5.90;;
31282;SDS011;17915;52.540;13.604;2023-04-24T02:28:27;6.20;;;5.67;;
31282;SDS011;17915;52.540;13.604;2023-04-24T02:30:53;7.97;;;7.17;;
31282;SDS011;17915;52.540;13.604;2023-04-24T02:33:18;6.97;;;6.20;;
31282;SDS011;17915;52.540;13.604;2023-04-24T02:35:44;8.00;;;6.37;;
31282;SDS011;17915;52.540;13.604;2023-04-24T02:38:09;6.47;;;5.97;;
31282;SDS011;17915;52.540;13.604;2023-04-24T02:40:35;7.30;;;5.53;;
31282;SDS011;17915;52.540;13.604;2023-04-24T02:43:00;7.30;;;6.60;;
31282;SDS011;17915;52.540;13.604;2023-04-24T02:45:25;7.00;;;6.50;;
31282;SDS011;17915;52.540;13.604;2023-04-24T02:47:51;9.73;;;7.50;;
31282;SDS011;17915;52.540;13.604;2023-04-24T02:50:16;6.70;;;6.20;;
31282;SDS011;17915;52.540;13.604;2023-04-24T02:52:41;6.73;;;6.03;;
31282;SDS011;17915;52.540;13.604;2023-04-24T02:55:07;6.50;;;5.60;;
31282;SDS011;17915;52.540;13.604;2023-04-24T02:57:33;5.82;;;5.43;;
31282;SDS011;17915;52.540;13.604;2023-04-24T02:59:58;6.53;;;6.03;;
31282;SDS011;17915;52.540;13.604;2023-04-24T03:02:24;7.90;;;5.07;;
31282;SDS011;17915;52.540;13.604;2023-04-24T03:04:50;6.27;;;5.77;;
31282;SDS011;17915;52.540;13.604;2023-04-24T03:07:15;5.97;;;5.47;;
31282;SDS011;17915;52.540;13.604;2023-04-24T03:09:41;6.10;;;5.60;;
31282;SDS011;17915;52.540;13.604;2023-04-24T03:12:06;7.63;;;6.90;;
31282;SDS011;17915;52.540;13.604;2023-04-24T03:14:31;6.87;;;6.03;;
31282;SDS011;17915;52.540;13.604;2023-04-24T03:16:57;6.20;;;5.70;;
31282;SDS011;17915;52.540;13.604;2023-04-24T03:19:23;9.27;;;5.67;;
31282;SDS011;17915;52.540;13.604;2023-04-24T03:21:48;6.83;;;5.47;;
31282;SDS011;17915;52.540;13.604;2023-04-24T03:24:13;6.37;;;5.77;;
31282;SDS011;17915;52.540;13.604;2023-04-24T03:26:39;6.10;;;5.70;;
31282;SDS011;17915;52.540;13.604;2023-04-24T03:29:04;5.87;;;5.30;;
31282;SDS011;17915;52.540;13.604;2023-04-24T03:31:30;8.20;;;5.53;;
31282;SDS011;17915;52.540;13.604;2023-04-24T03:33:55;6.30;;;5.70;;
31282;SDS011;17915;52.540;13.604;2023-04-24T03:36:20;5.73;;;4.80;;
31282;SDS011;17915;52.540;13.604;2023-04-24T03:38:46;6.40;;;5.90;;
31282;SDS011;17915;52.540;13.604;2023-04-24T03:41:11;7.73;;;5.80;;
31282;SDS011;17915;52.540;13.604;2023-04-24T03:43:36;13.00;;;7.07;;
31282;SDS011;17915;52.540;13.604;2023-04-24T03:46:03;6.60;;;6.00;;
31282;SDS011;17915;52.540;13.604;2023-04-24T03:48:28;7.15;;;6.55;;
31282;SDS011;17915;52.540;13.604;2023-04-24T03:50:54;8.50;;;5.83;;
31282;SDS011;17915;52.540;13.604;2023-04-24T03:53:19;5.40;;;5.00;;
31282;SDS011;17915;52.540;13.604;2023-04-24T03:55:45;6.07;;;5.57;;
31282;SDS011;17915;52.540;13.604;2023-04-24T03:58:10;6.47;;;5.95;;
31282;SDS011;17915;52.540;13.604;2023-04-24T04:00:36;6.77;;;6.17;;
31282;SDS011;17915;52.540;13.604;2023-04-24T04:03:02;6.72;;;5.90;;
31282;SDS011;17915;52.540;13.604;2023-04-24T04:05:28;5.97;;;5.47;;
31282;SDS011;17915;52.540;13.604;2023-04-24T04:07:53;5.50;;;5.00;;
31282;SDS011;17915;52.540;13.604;2023-04-24T04:10:19;6.40;;;5.90;;
31282;SDS011;17915;52.540;13.604;2023-04-24T04:12:45;5.80;;;4.80;;
31282;SDS011;17915;52.540;13.604;2023-04-24T04:15:10;7.17;;;5.10;;
31282;SDS011;17915;52.540;13.604;2023-04-24T04:17:35;5.57;;;5.17;;
31282;SDS011;17915;52.540;13.604;2023-04-24T04:20:02;6.30;;;5.72;;
31282;SDS011;17915;52.540;13.604;2023-04-24T04:22:32;6.15;;;5.55;;
31282;SDS011;17915;52.540;13.604;2023-04-24T04:24:57;5.47;;;4.97;;
31282;SDS011;17915;52.540;13.604;2023-04-24T04:27:23;5.90;;;4.67;;
31282;SDS011;17915;52.540;13.604;2023-04-24T04:29:48;5.45;;;5.05;;
31282;SDS011;17915;52.540;13.604;2023-04-24T04:32:15;6.25;;;5.75;;
31282;SDS011;17915;52.540;13.604;2023-04-24T04:34:41;6.25;;;5.50;;
31282;SDS011;17915;52.540;13.604;2023-04-24T04:37:06;6.63;;;6.00;;
31282;SDS011;17915;52.540;13.604;2023-04-24T04:39:32;6.30;;;5.47;;
31282;SDS011;17915;52.540;13.604;2023-04-24T04:41:57;6.97;;;6.27;;
31282;SDS011;17915;52.540;13.604;2023-04-24T04:44:23;8.20;;;7.40;;
31282;SDS011;17915;52.540;13.604;2023-04-24T04:46:49;7.00;;;6.30;;
31282;SDS011;17915;52.540;13.604;2023-04-24T04:49:15;8.38;;;5.13;;
31282;SDS011;17915;52.540;13.604;2023-04-24T04:54:06;5.25;;;4.68;;
31282;SDS011;17915;52.540;13.604;2023-04-24T04:56:32;8.53;;;5.17;;
31282;SDS011;17915;52.540;13.604;2023-04-24T04:58:58;8.07;;;5.93;;
31282;SDS011;17915;52.540;13.604;2023-04-24T05:01:24;7.95;;;6.43;;
31282;SDS011;17915;52.540;13.604;2023-04-24T05:03:50;14.43;;;6.43;;
31282;SDS011;17915;52.540;13.604;2023-04-24T05:06:15;11.73;;;7.63;;
31282;SDS011;17915;52.540;13.604;2023-04-24T05:08:41;19.37;;;6.43;;
31282;SDS011;17915;52.540;13.604;2023-04-24T05:11:06;9.70;;;6.97;;
31282;SDS011;17915;52.540;13.604;2023-04-24T05:13:32;6.50;;;5.83;;
31282;SDS011;17915;52.540;13.604;2023-04-24T05:15:58;7.13;;;6.40;;
31282;SDS011;17915;52.540;13.604;2023-04-24T05:18:24;7.10;;;5.40;;
31282;SDS011;17915;52.540;13.604;2023-04-24T05:20:49;5.30;;;4.20;;
31282;SDS011;17915;52.540;13.604;2023-04-24T05:23:14;8.67;;;4.90;;
31282;SDS011;17915;52.540;13.604;2023-04-24T05:25:40;4.53;;;4.23;;
31282;SDS011;17915;52.540;13.604;2023-04-24T05:28:06;6.65;;;4.80;;
31282;SDS011;17915;52.540;13.604;2023-04-24T05:30:31;4.77;;;4.37;;
31282;SDS011;17915;52.540;13.604;2023-04-24T05:32:57;7.07;;;4.40;;
31282;SDS011;17915;52.540;13.604;2023-04-24T05:35:22;9.00;;;5.07;;
31282;SDS011;17915;52.540;13.604;2023-04-24T05:37:48;5.20;;;4.80;;
31282;SDS011;17915;52.540;13.604;2023-04-24T05:40:13;4.20;;;3.87;;
31282;SDS011;17915;52.540;13.604;2023-04-24T05:42:39;4.67;;;4.37;;
31282;SDS011;17915;52.540;13.604;2023-04-24T05:45:04;7.28;;;5.57;;
31282;SDS011;17915;52.540;13.604;2023-04-24T05:47:30;6.00;;;4.65;;
31282;SDS011;17915;52.540;13.604;2023-04-24T05:49:56;7.60;;;5.80;;
31282;SDS011;17915;52.540;13.604;2023-04-24T05:52:21;3.53;;;3.23;;
31282;SDS011;17915;52.540;13.604;2023-04-24T05:54:47;4.83;;;3.50;;
31282;SDS011;17915;52.540;13.604;2023-04-24T05:57:12;4.00;;;3.50;;
31282;SDS011;17915;52.540;13.604;2023-04-24T05:59:38;4.50;;;3.70;;
31282;SDS011;17915;52.540;13.604;2023-04-24T06:02:04;5.93;;;3.17;;
31282;SDS011;17915;52.540;13.604;2023-04-24T06:04:29;4.40;;;3.25;;
31282;SDS011;17915;52.540;13.604;2023-04-24T06:06:55;4.88;;;2.78;;
31282;SDS011;17915;52.540;13.604;2023-04-24T06:09:24;2.67;;;2.47;;
31282;SDS011;17915;52.540;13.604;2023-04-24T06:11:50;4.72;;;3.58;;
31282;SDS011;17915;52.540;13.604;2023-04-24T06:14:17;5.80;;;3.80;;
31282;SDS011;17915;52.540;13.604;2023-04-24T06:16:43;2.83;;;2.63;;
31282;SDS011;17915;52.540;13.604;2023-04-24T06:19:08;2.30;;;2.20;;
31282;SDS011;17915;52.540;13.604;2023-04-24T06:21:34;2.07;;;1.80;;
31282;SDS011;17915;52.540;13.604;2023-04-24T06:23:59;7.83;;;2.97;;
31282;SDS011;17915;52.540;13.604;2023-04-24T06:26:25;4.17;;;2.30;;
31282;SDS011;17915;52.540;13.604;2023-04-24T06:28:51;2.60;;;2.40;;
31282;SDS011;17915;52.540;13.604;2023-04-24T06:31:18;2.83;;;2.60;;
31282;SDS011;17915;52.540;13.604;2023-04-24T06:33:44;3.83;;;2.08;;
31282;SDS011;17915;52.540;13.604;2023-04-24T06:36:10;5.80;;;2.30;;
31282;SDS011;17915;52.540;13.604;2023-04-24T06:38:35;3.30;;;3.00;;
31282;SDS011;17915;52.540;13.604;2023-04-24T06:41:01;16.20;;;3.27;;
31282;SDS011;17915;52.540;13.604;2023-04-24T06:43:26;2.10;;;2.00;;
31282;SDS011;17915;52.540;13.604;2023-04-24T06:45:51;2.73;;;2.50;;
31282;SDS011;17915;52.540;13.604;2023-04-24T06:48:17;7.37;;;2.20;;
31282;SDS011;17915;52.540;13.604;2023-04-24T06:50:42;2.27;;;2.17;;
31282;SDS011;17915;52.540;13.604;2023-04-24T06:53:08;2.50;;;2.37;;
31282;SDS011;17915;52.540;13.604;2023-04-24T06:55:36;3.20;;;2.00;;
31282;SDS011;17915;52.540;13.604;2023-04-24T06:58:01;1.90;;;1.80;;
31282;SDS011;17915;52.540;13.604;2023-04-24T07:00:26;2.03;;;1.93;;
31282;SDS011;17915;52.540;13.604;2023-04-24T07:02:52;2.23;;;2.10;;
31282;SDS011;17915;52.540;13.604;2023-04-24T07:05:17;2.10;;;1.93;;
31282;SDS011;17915;52.540;13.604;2023-04-24T07:07:45;3.17;;;1.48;;
31282;SDS011;17915;52.540;13.604;2023-04-24T07:10:11;2.10;;;1.25;;
31282;SDS011;17915;52.540;13.604;2023-04-24T07:12:38;1.98;;;1.88;;
31282;SDS011;17915;52.540;13.604;2023-04-24T07:15:04;1.83;;;1.73;;
31282;SDS011;17915;52.540;13.604;2023-04-24T07:17:30;12.82;;;2.47;;
31282;SDS011;17915;52.540;13.604;2023-04-24T07:19:56;3.43;;;1.20;;
31282;SDS011;17915;52.540;13.604;2023-04-24T07:22:21;1.37;;;1.33;;
31282;SDS011;17915;52.540;13.604;2023-04-24T07:24:47;1.90;;;1.80;;
31282;SDS011;17915;52.540;13.604;2023-04-24T07:27:12;2.93;;;1.83;;
31282;SDS011;17915;52.540;13.604;2023-04-24T07:29:39;1.40;;;1.30;;
31282;SDS011;17915;52.540;13.604;2023-04-24T07:32:05;2.03;;;1.27;;
31282;SDS011;17915;52.540;13.604;2023-04-24T07:34:31;3.67;;;1.20;;
31282;SDS011;17915;52.540;13.604;2023-04-24T07:36:56;1.53;;;1.43;;
31282;SDS011;17915;52.540;13.604;2023-04-24T07:39:22;1.83;;;1.73;;
31282;SDS011;17915;52.540;13.604;2023-04-24T07:41:47;2.10;;;1.20;;
31282;SDS011;17915;52.540;13.604;2023-04-24T07:44:12;2.73;;;1.90;;
31282;SDS011;17915;52.540;13.604;2023-04-24T07:46:38;1.40;;;1.40;;
31282;SDS011;17915;52.540;13.604;2023-04-24T07:49:04;2.83;;;1.90;;
31282;SDS011;17915;52.540;13.604;2023-04-24T07:51:29;2.00;;;1.88;;
31282;SDS011;17915;52.540;13.604;2023-04-24T07:56:21;1.45;;;1.10;;
31282;SDS011;17915;52.540;13.604;2023-04-24T07:58:46;0.73;;;0.73;;
31282;SDS011;17915;52.540;13.604;2023-04-24T08:01:12;1.63;;;1.00;;
31282;SDS011;17915;52.540;13.604;2023-04-24T08:03:37;0.90;;;0.90;;
31282;SDS011;17915;52.540;13.604;2023-04-24T08:06:02;2.50;;;1.83;;
31282;SDS011;17915;52.540;13.604;2023-04-24T08:08:28;5.23;;;1.20;;
31282;SDS011;17915;52.540;13.604;2023-04-24T08:10:53;1.10;;;0.97;;
31282;SDS011;17915;52.540;13.604;2023-04-24T08:13:20;1.08;;;0.80;;
31282;SDS011;17915;52.540;13.604;2023-04-24T08:15:45;1.43;;;1.23;;
31282;SDS011;17915;52.540;13.604;2023-04-24T08:18:11;1.17;;;1.08;;
31282;SDS011;17915;52.540;13.604;2023-04-24T08:20:37;0.70;;;0.70;;
31282;SDS011;17915;52.540;13.604;2023-04-24T08:23:02;1.13;;;1.00;;
31282;SDS011;17915;52.540;13.604;2023-04-24T08:25:28;2.33;;;1.00;;
31282;SDS011;17915;52.540;13.604;2023-04-24T08:27:53;1.10;;;1.00;;
31282;SDS011;17915;52.540;13.604;2023-04-24T08:30:19;1.70;;;0.90;;
31282;SDS011;17915;52.540;13.604;2023-04-24T08:32:45;0.77;;;0.77;;
31282;SDS011;17915;52.540;13.604;2023-04-24T08:35:11;5.03;;;1.17;;
31282;SDS011;17915;52.540;13.604;2023-04-24T08:37:36;1.33;;;1.03;;
31282;SDS011;17915;52.540;13.604;2023-04-24T08:40:03;1.38;;;1.27;;
31282;SDS011;17915;52.540;13.604;2023-04-24T08:42:33;4.32;;;1.50;;
31282;SDS011;17915;52.540;13.604;2023-04-24T08:45:00;4.60;;;1.48;;
31282;SDS011;17915;52.540;13.604;2023-04-24T08:47:27;4.25;;;1.20;;
31282;SDS011;17915;52.540;13.604;2023-04-24T08:52:19;1.05;;;1.05;;
31282;SDS011;17915;52.540;13.604;2023-04-24T08:54:45;1.40;;;1.30;;
31282;SDS011;17915;52.540;13.604;2023-04-24T08:57:11;1.00;;;0.93;;
31282;SDS011;17915;52.540;13.604;2023-04-24T08:59:38;1.00;;;0.90;;
31282;SDS011;17915;52.540;13.604;2023-04-24T09:02:04;1.02;;;1.00;;
31282;SDS011;17915;52.540;13.604;2023-04-24T09:04:30;0.95;;;0.95;;
31282;SDS011;17915;52.540;13.604;2023-04-24T09:06:56;3.08;;;0.93;;
31282;SDS011;17915;52.540;13.604;2023-04-24T09:09:25;3.65;;;1.25;;
31282;SDS011;17915;52.540;13.604;2023-04-24T09:11:51;3.80;;;1.00;;
31282;SDS011;17915;52.540;13.604;2023-04-24T09:14:20;1.48;;;1.08;;
31282;SDS011;17915;52.540;13.604;2023-04-24T09:16:46;3.03;;;0.90;;
31282;SDS011;17915;52.540;13.604;2023-04-24T09:19:12;1.90;;;1.80;;
31282;SDS011;17915;52.540;13.604;2023-04-24T09:21:37;2.53;;;1.65;;
31282;SDS011;17915;52.540;13.604;2023-04-24T09:24:04;0.70;;;0.70;;
31282;SDS011;17915;52.540;13.604;2023-04-24T09:26:31;1.35;;;1.30;;
31282;SDS011;17915;52.540;13.604;2023-04-24T09:29:00;1.30;;;1.30;;
31282;SDS011;17915;52.540;13.604;2023-04-24T09:31:29;1.63;;;1.08;;
31282;SDS011;17915;52.540;13.604;2023-04-24T09:33:56;0.60;;;0.60;;
31282;SDS011;17915;52.540;13.604;2023-04-24T09:36:41;1.80;;;1.08;;
31282;SDS011;17915;52.540;13.604;2023-04-24T09:39:08;1.20;;;1.02;;
31282;SDS011;17915;52.540;13.604;2023-04-24T09:41:36;4.70;;;1.00;;
31282;SDS011;17915;52.540;13.604;2023-04-24T09:49:15;3.35;;;2.03;;
31282;SDS011;17915;52.540;13.604;2023-04-24T09:51:42;0.50;;;0.50;;
31282;SDS011;17915;52.540;13.604;2023-04-24T09:54:25;1.75;;;1.02;;
31282;SDS011;17915;52.540;13.604;2023-04-24T09:56:51;1.15;;;0.90;;
31282;SDS011;17915;52.540;13.604;2023-04-24T09:59:19;0.87;;;0.77;;
31282;SDS011;17915;52.540;13.604;2023-04-24T10:01:45;2.65;;;0.90;;
31282;SDS011;17915;52.540;13.604;2023-04-24T10:06:46;2.92;;;1.20;;
31282;SDS011;17915;52.540;13.604;2023-04-24T10:09:13;6.90;;;3.03;;
31282;SDS011;17915;52.540;13.604;2023-04-24T10:11:41;2.22;;;1.20;;
31282;SDS011;17915;52.540;13.604;2023-04-24T10:14:09;1.95;;;0.90;;
31282;SDS011;17915;52.540;13.604;2023-04-24T10:16:36;1.45;;;1.30;;
31282;SDS011;17915;52.540;13.604;2023-04-24T10:19:01;16.60;;;2.25;;
31282;SDS011;17915;52.540;13.604;2023-04-24T10:21:28;1.48;;;0.90;;
31282;SDS011;17915;52.540;13.604;2023-04-24T10:23:53;2.27;;;1.17;;
31282;SDS011;17915;52.540;13.604;2023-04-24T10:26:19;2.97;;;1.57;;
31282;SDS011;17915;52.540;13.604;2023-04-24T10:28:45;0.87;;;0.80;;
31282;SDS011;17915;52.540;13.604;2023-04-24T10:31:11;1.10;;;1.08;;
31282;SDS011;17915;52.540;13.604;2023-04-24T10:33:38;0.90;;;0.90;;
31282;SDS011;17915;52.540;13.604;2023-04-24T10:36:06;3.85;;;0.75;;
31282;SDS011;17915;52.540;13.604;2023-04-24T10:38:33;1.30;;;0.85;;
31282;SDS011;17915;52.540;13.604;2023-04-24T10:41:11;3.55;;;1.58;;
31282;SDS011;17915;52.540;13.604;2023-04-24T10:43:44;2.47;;;1.38;;
31282;SDS011;17915;52.540;13.604;2023-04-24T10:46:09;1.40;;;0.97;;
31282;SDS011;17915;52.540;13.604;2023-04-24T10:48:35;4.23;;;1.10;;
31282;SDS011;17915;52.540;13.604;2023-04-24T10:51:01;1.90;;;0.60;;
31282;SDS011;17915;52.540;13.604;2023-04-24T10:53:27;0.93;;;0.93;;
31282;SDS011;17915;52.540;13.604;2023-04-24T10:56:03;3.58;;;0.95;;
31282;SDS011;17915;52.540;13.604;2023-04-24T11:01:03;5.93;;;1.10;;
31282;SDS011;17915;52.540;13.604;2023-04-24T11:03:29;1.60;;;0.82;;
31282;SDS011;17915;52.540;13.604;2023-04-24T11:08:27;5.75;;;1.63;;
31282;SDS011;17915;52.540;13.604;2023-04-24T11:13:23;1.67;;;1.35;;
31282;SDS011;17915;52.540;13.604;2023-04-24T11:18:49;2.50;;;1.10;;
31282;SDS011;17915;52.540;13.604;2023-04-24T11:21:18;4.90;;;1.23;;
31282;SDS011;17915;52.540;13.604;2023-04-24T11:23:44;1.83;;;0.75;;
31282;SDS011;17915;52.540;13.604;2023-04-24T11:26:21;9.63;;;1.30;;
31282;SDS011;17915;52.540;13.604;2023-04-24T11:28:49;2.38;;;1.20;;
31282;SDS011;17915;52.540;13.604;2023-04-24T11:31:34;1.17;;;0.75;;
31282;SDS011;17915;52.540;13.604;2023-04-24T11:34:10;0.70;;;0.70;;
31282;SDS011;17915;52.540;13.604;2023-04-24T11:36:38;3.10;;;1.77;;
31282;SDS011;17915;52.540;13.604;2023-04-24T11:39:04;4.43;;;0.82;;
31282;SDS011;17915;52.540;13.604;2023-04-24T11:41:30;0.98;;;0.98;;
31282;SDS011;17915;52.540;13.604;2023-04-24T11:43:55;1.30;;;0.80;;
31282;SDS011;17915;52.540;13.604;2023-04-24T11:46:21;0.90;;;0.70;;
31282;SDS011;17915;52.540;13.604;2023-04-24T11:48:47;0.85;;;0.82;;
31282;SDS011;17915;52.540;13.604;2023-04-24T11:51:13;2.40;;;0.77;;
31282;SDS011;17915;52.540;13.604;2023-04-24T11:53:38;6.63;;;1.90;;
31282;SDS011;17915;52.540;13.604;2023-04-24T11:56:04;1.33;;;1.10;;
31282;SDS011;17915;52.540;13.604;2023-04-24T11:58:34;2.05;;;0.90;;
31282;SDS011;17915;52.540;13.604;2023-04-24T12:01:01;13.27;;;3.63;;
31282;SDS011;17915;52.540;13.604;2023-04-24T12:03:26;1.63;;;1.10;;
31282;SDS011;17915;52.540;13.604;2023-04-24T12:05:52;1.50;;;1.00;;
31282;SDS011;17915;52.540;13.604;2023-04-24T12:08:27;1.13;;;0.73;;
31282;SDS011;17915;52.540;13.604;2023-04-24T12:10:53;1.00;;;0.68;;
31282;SDS011;17915;52.540;13.604;2023-04-24T12:13:18;0.77;;;0.77;;
31282;SDS011;17915;52.540;13.604;2023-04-24T12:15:44;0.95;;;0.70;;
31282;SDS011;17915;52.540;13.604;2023-04-24T12:18:11;1.67;;;0.70;;
31282;SDS011;17915;52.540;13.604;2023-04-24T12:20:37;1.33;;;0.82;;
31282;SDS011;17915;52.540;13.604;2023-04-24T12:23:03;0.90;;;0.90;;
31282;SDS011;17915;52.540;13.604;2023-04-24T12:25:29;0.80;;;0.80;;
31282;SDS011;17915;52.540;13.604;2023-04-24T12:27:57;0.60;;;0.60;;
31282;SDS011;17915;52.540;13.604;2023-04-24T12:30:48;3.42;;;2.65;;
31282;SDS011;17915;52.540;13.604;2023-04-24T12:33:17;2.47;;;0.93;;
31282;SDS011;17915;52.540;13.604;2023-04-24T12:35:44;5.45;;;2.65;;
31282;SDS011;17915;52.540;13.604;2023-04-24T12:38:11;3.13;;;2.58;;
31282;SDS011;17915;52.540;13.604;2023-04-24T12:40:38;1.88;;;0.75;;
31282;SDS011;17915;52.540;13.604;2023-04-24T12:43:12;1.83;;;0.90;;
31282;SDS011;17915;52.540;13.604;2023-04-24T12:45:39;1.83;;;1.42;;
31282;SDS011;17915;52.540;13.604;2023-04-24T12:48:04;1.63;;;1.50;;
31282;SDS011;17915;52.540;13.604;2023-04-24T12:50:30;1.73;;;0.90;;
31282;SDS011;17915;52.540;13.604;2023-04-24T12:52:55;0.70;;;0.70;;
31282;SDS011;17915;52.540;13.604;2023-04-24T12:55:21;3.97;;;1.33;;
31282;SDS011;17915;52.540;13.604;2023-04-24T12:57:46;1.00;;;1.00;;
31282;SDS011;17915;52.540;13.604;2023-04-24T13:00:11;2.07;;;0.97;;
31282;SDS011;17915;52.540;13.604;2023-04-24T13:02:37;0.90;;;0.88;;
31282;SDS011;17915;52.540;13.604;2023-04-24T13:05:03;3.28;;;0.70;;
31282;SDS011;17915;52.540;13.604;2023-04-24T13:07:29;2.72;;;0.70;;
31282;SDS011;17915;52.540;13.604;2023-04-24T13:09:54;0.73;;;0.73;;
31282;SDS011;17915;52.540;13.604;2023-04-24T13:14:46;1.38;;;0.73;;
31282;SDS011;17915;52.540;13.604;2023-04-24T13:17:12;3.35;;;0.93;;
31282;SDS011;17915;52.540;13.604;2023-04-24T13:19:41;1.02;;;0.98;;
31282;SDS011;17915;52.540;13.604;2023-04-24T13:22:08;0.77;;;0.77;;
31282;SDS011;17915;52.540;13.604;2023-04-24T13:24:35;1.30;;;0.80;;
31282;SDS011;17915;52.540;13.604;2023-04-24T13:27:00;1.53;;;1.43;;
31282;SDS011;17915;52.540;13.604;2023-04-24T13:29:26;2.55;;;0.82;;
31282;SDS011;17915;52.540;13.604;2023-04-24T13:31:51;2.30;;;0.63;;
31282;SDS011;17915;52.540;13.604;2023-04-24T13:34:19;0.50;;;0.50;;
31282;SDS011;17915;52.540;13.604;2023-04-24T13:36:45;0.98;;;0.80;;
31282;SDS011;17915;52.540;13.604;2023-04-24T13:39:11;0.80;;;0.80;;
31282;SDS011;17915;52.540;13.604;2023-04-24T13:41:36;1.45;;;0.52;;
31282;SDS011;17915;52.540;13.604;2023-04-24T13:44:02;0.60;;;0.60;;
31282;SDS011;17915;52.540;13.604;2023-04-24T13:46:28;3.47;;;0.80;;
31282;SDS011;17915;52.540;13.604;2023-04-24T13:48:53;0.70;;;0.70;;
31282;SDS011;17915;52.540;13.604;2023-04-24T13:51:19;1.10;;;1.00;;
31282;SDS011;17915;52.540;13.604;2023-04-24T13:53:44;0.73;;;0.73;;
31282;SDS011;17915;52.540;13.604;2023-04-24T13:56:10;1.40;;;0.73;;
31282;SDS011;17915;52.540;13.604;2023-04-24T13:58:35;2.53;;;0.83;;
31282;SDS011;17915;52.540;13.604;2023-04-24T14:03:27;3.40;;;1.30;;
31282;SDS011;17915;52.540;13.604;2023-04-24T14:05:53;0.90;;;0.90;;
31282;SDS011;17915;52.540;13.604;2023-04-24T14:08:18;1.00;;;1.00;;
31282;SDS011;17915;52.540;13.604;2023-04-24T14:10:44;1.87;;;0.83;;
31282;SDS011;17915;52.540;13.604;2023-04-24T14:13:09;0.80;;;0.80;;
31282;SDS011;17915;52.540;13.604;2023-04-24T14:15:35;0.60;;;0.60;;
31282;SDS011;17915;52.540;13.604;2023-04-24T14:18:00;1.75;;;0.88;;
31282;SDS011;17915;52.540;13.604;2023-04-24T14:20:26;1.40;;;1.07;;
31282;SDS011;17915;52.540;13.604;2023-04-24T14:22:51;1.90;;;1.00;;
31282;SDS011;17915;52.540;13.604;2023-04-24T14:25:16;1.70;;;1.23;;
31282;SDS011;17915;52.540;13.604;2023-04-24T14:27:42;4.50;;;0.83;;
31282;SDS011;17915;52.540;13.604;2023-04-24T14:30:07;1.90;;;1.10;;
31282;SDS011;17915;52.540;13.604;2023-04-24T14:32:33;0.95;;;0.80;;
31282;SDS011;17915;52.540;13.604;2023-04-24T14:34:59;2.57;;;0.93;;
31282;SDS011;17915;52.540;13.604;2023-04-24T14:37:24;4.70;;;0.90;;
31282;SDS011;17915;52.540;13.604;2023-04-24T14:39:49;1.80;;;0.87;;
31282;SDS011;17915;52.540;13.604;2023-04-24T14:42:15;3.30;;;1.10;;
31282;SDS011;17915;52.540;13.604;2023-04-24T14:44:42;3.20;;;0.90;;
31282;SDS011;17915;52.540;13.604;2023-04-24T14:47:07;0.97;;;0.97;;
31282;SDS011;17915;52.540;13.604;2023-04-24T14:49:32;1.70;;;1.20;;
31282;SDS011;17915;52.540;13.604;2023-04-24T14:51:58;1.00;;;1.00;;
31282;SDS011;17915;52.540;13.604;2023-04-24T14:54:23;2.30;;;1.77;;
31282;SDS011;17915;52.540;13.604;2023-04-24T14:56:49;2.10;;;1.90;;